Time;durP1;ratioP1;P1;durP2;ratioP2;P2;SDS_P1;SDS_P2;PMS_P1;PMS_P2;Temp;Humidity;BMP_temperature;BMP_pressure;BME280_temperature;BME280_humidity;BME280_pressure;Samples;Min_cycle;Max_cycle;Signal;HPM_P1;HPM_P2
2021/12/03 00:01:03;;;;;;;6.23;1.77;;;;;;;;;;5037815;28;20943;-76
2021/12/03 00:03:30;;;;;;;4.97;2.00;;;;;;;;;;5037275;28;20518;-76
2021/12/03 00:05:58;;;;;;;10.40;2.87;;;;;;;;;;5054535;28;20462;-71
2021/12/03 00:08:25;;;;;;;10.50;3.63;;;;;;;;;;5054841;28;20429;-74
2021/12/03 00:10:57;;;;;;;8.80;2.73;;;;;;;;;;5053856;28;20911;-75
2021/12/03 00:13:24;;;;;;;7.40;2.70;;;;;;;;;;5053716;28;20893;-74
2021/12/03 00:15:51;;;;;;;4.27;1.97;;;;;;;;;;5054799;28;20438;-73
2021/12/03 00:18:18;;;;;;;5.93;2.50;;;;;;;;;;5054502;28;20435;-72
2021/12/03 00:20:45;;;;;;;4.40;2.10;;;;;;;;;;5053520;28;20522;-71
2021/12/03 00:23:12;;;;;;;5.17;1.77;;;;;;;;;;5054605;28;20769;-72
2021/12/03 00:25:38;;;;;;;4.63;1.70;;;;;;;;;;5054705;28;20494;-75
2021/12/03 00:28:05;;;;;;;3.40;1.80;;;;;;;;;;5054335;28;20421;-74
2021/12/03 00:30:33;;;;;;;3.83;1.60;;;;;;;;;;5020305;28;20429;-75
2021/12/03 00:33:00;;;;;;;2.73;1.17;;;;;;;;;;5036566;28;20441;-80
2021/12/03 00:35:26;;;;;;;5.30;1.90;;;;;;;;;;5036116;28;20433;-74
2021/12/03 00:37:53;;;;;;;6.10;1.97;;;;;;;;;;5036390;28;20425;-77
2021/12/03 00:40:22;;;;;;;4.33;1.63;;;;;;;;;;5054402;28;20706;-78
2021/12/03 00:42:49;;;;;;;3.70;1.90;;;;;;;;;;5053156;28;20469;-77
2021/12/03 00:45:16;;;;;;;4.00;2.07;;;;;;;;;;5036403;28;20936;-75
2021/12/03 00:47:43;;;;;;;5.17;2.20;;;;;;;;;;5053807;28;20429;-76
2021/12/03 00:50:10;;;;;;;7.77;2.33;;;;;;;;;;5054194;28;20413;-75
2021/12/03 00:52:37;;;;;;;5.43;2.10;;;;;;;;;;5036456;28;20420;-77
2021/12/03 00:55:04;;;;;;;5.00;1.77;;;;;;;;;;5052428;28;20417;-75
2021/12/03 00:57:31;;;;;;;6.50;2.13;;;;;;;;;;5053439;28;21027;-74
2021/12/03 00:59:58;;;;;;;3.87;1.80;;;;;;;;;;5054216;28;20449;-74
2021/12/03 01:41:16;;;;;;;4.27;1.63;;;;;;;;;;5053775;28;20815;-74
2021/12/03 01:43:44;;;;;;;3.70;1.53;;;;;;;;;;5052401;28;20434;-74
2021/12/03 01:46:11;;;;;;;5.70;1.73;;;;;;;;;;5036081;28;20528;-73
2021/12/03 01:52:44;;;;;;;4.70;1.87;;;;;;;;;;5050122;28;20433;-73
2021/12/03 01:55:11;;;;;;;4.47;1.53;;;;;;;;;;5033759;28;20979;-74
2021/12/03 01:57:38;;;;;;;4.87;1.80;;;;;;;;;;5034039;28;20438;-74
2021/12/03 02:00:25;;;;;;;3.83;1.83;;;;;;;;;;5033370;28;20462;-74
2021/12/03 02:02:51;;;;;;;6.13;1.70;;;;;;;;;;5033582;28;20423;-74
2021/12/03 02:05:18;;;;;;;7.10;2.17;;;;;;;;;;5032820;28;20475;-73
2021/12/03 02:07:45;;;;;;;6.07;1.87;;;;;;;;;;5033788;28;20442;-74
2021/12/03 02:10:11;;;;;;;5.13;2.17;;;;;;;;;;5033897;28;20488;-74
2021/12/03 02:12:38;;;;;;;3.87;1.97;;;;;;;;;;5033648;28;20414;-74
2021/12/03 02:15:05;;;;;;;7.20;2.40;;;;;;;;;;5034152;28;20476;-74
2021/12/03 02:17:31;;;;;;;5.77;1.80;;;;;;;;;;5036637;28;20425;-74
2021/12/03 02:19:58;;;;;;;4.33;1.80;;;;;;;;;;5037130;28;20499;-74
2021/12/03 02:22:25;;;;;;;5.27;1.90;;;;;;;;;;5037780;28;20430;-74
2021/12/03 02:24:51;;;;;;;3.63;1.57;;;;;;;;;;5036903;28;20783;-74
2021/12/03 02:27:18;;;;;;;7.87;2.13;;;;;;;;;;5037134;28;20436;-74
2021/12/03 02:29:45;;;;;;;4.77;1.97;;;;;;;;;;5036325;28;20896;-74
2021/12/03 02:32:11;;;;;;;4.10;2.33;;;;;;;;;;5037524;28;20418;-74
2021/12/03 02:34:38;;;;;;;4.23;1.83;;;;;;;;;;5037991;28;20425;-74
2021/12/03 02:37:04;;;;;;;5.03;2.20;;;;;;;;;;5036945;28;20434;-74
2021/12/03 02:39:31;;;;;;;4.27;1.70;;;;;;;;;;5037249;28;20488;-74
2021/12/03 02:41:58;;;;;;;6.07;2.10;;;;;;;;;;5035651;28;20426;-74
2021/12/03 02:44:24;;;;;;;3.17;1.60;;;;;;;;;;5036640;28;20900;-73
2021/12/03 02:46:51;;;;;;;4.70;2.07;;;;;;;;;;5037012;28;20418;-74
2021/12/03 02:49:17;;;;;;;5.23;2.30;;;;;;;;;;5036004;28;20422;-74
2021/12/03 02:51:44;;;;;;;4.67;1.87;;;;;;;;;;5037185;28;20527;-74
2021/12/03 02:54:11;;;;;;;3.10;1.80;;;;;;;;;;5037482;28;20418;-74
2021/12/03 02:56:37;;;;;;;4.80;2.07;;;;;;;;;;5036911;28;20784;-74
2021/12/03 02:59:04;;;;;;;5.73;1.83;;;;;;;;;;5036579;28;20433;-74
2021/12/03 03:01:31;;;;;;;5.37;2.07;;;;;;;;;;5036950;28;20549;-74
2021/12/03 03:03:58;;;;;;;4.80;2.07;;;;;;;;;;5037302;28;20421;-74
2021/12/03 03:06:25;;;;;;;5.63;2.00;;;;;;;;;;5036411;28;20521;-74
2021/12/03 03:08:52;;;;;;;5.43;2.20;;;;;;;;;;5036356;28;20422;-74
2021/12/03 03:11:21;;;;;;;3.53;1.60;;;;;;;;;;5036302;28;20422;-74
2021/12/03 03:13:48;;;;;;;2.93;1.50;;;;;;;;;;5036539;28;20422;-74
2021/12/03 03:16:15;;;;;;;3.27;1.83;;;;;;;;;;5035303;28;20418;-74
2021/12/03 03:18:42;;;;;;;3.73;1.47;;;;;;;;;;5036440;28;20464;-74
2021/12/03 03:21:09;;;;;;;3.43;1.40;;;;;;;;;;5034871;28;20524;-74
2021/12/03 03:23:35;;;;;;;2.30;0.93;;;;;;;;;;5035182;28;20488;-74
2021/12/03 03:26:02;;;;;;;3.90;1.60;;;;;;;;;;5036372;28;20430;-74
2021/12/03 03:28:28;;;;;;;3.10;1.57;;;;;;;;;;5035595;28;20759;-74
2021/12/03 03:30:55;;;;;;;4.17;1.80;;;;;;;;;;5018611;28;20549;-74
2021/12/03 03:33:22;;;;;;;3.03;1.70;;;;;;;;;;5034910;28;20430;-74
2021/12/03 03:35:49;;;;;;;2.63;1.30;;;;;;;;;;5035126;28;20777;-74
2021/12/03 03:38:16;;;;;;;3.93;1.60;;;;;;;;;;5036654;28;20414;-74
2021/12/03 03:40:43;;;;;;;3.30;1.40;;;;;;;;;;5034489;28;20485;-74
2021/12/03 03:43:10;;;;;;;2.63;1.30;;;;;;;;;;5036291;28;20932;-74
2021/12/03 03:45:37;;;;;;;4.20;1.50;;;;;;;;;;5036184;28;20481;-74
2021/12/03 03:48:04;;;;;;;3.17;1.40;;;;;;;;;;5035918;28;20484;-74
2021/12/03 03:50:30;;;;;;;2.67;1.07;;;;;;;;;;5034626;28;20468;-74
2021/12/03 03:52:57;;;;;;;3.70;1.57;;;;;;;;;;5018150;28;20426;-74
2021/12/03 03:55:24;;;;;;;1.80;1.10;;;;;;;;;;5034832;28;20430;-74
2021/12/03 03:57:51;;;;;;;2.53;1.27;;;;;;;;;;5035736;28;20491;-75
2021/12/03 04:00:19;;;;;;;2.00;1.47;;;;;;;;;;5034164;28;21053;-75
2021/12/03 04:02:46;;;;;;;3.63;1.63;;;;;;;;;;5034428;28;20784;-75
2021/12/03 04:05:12;;;;;;;4.97;1.90;;;;;;;;;;5034417;28;20483;-75
2021/12/03 04:07:39;;;;;;;6.43;2.17;;;;;;;;;;5034286;28;20414;-75
2021/12/03 04:10:07;;;;;;;5.10;2.23;;;;;;;;;;5017814;28;20444;-75
2021/12/03 04:12:34;;;;;;;4.10;1.47;;;;;;;;;;5035949;28;20437;-75
2021/12/03 04:15:00;;;;;;;6.17;2.90;;;;;;;;;;5034228;28;20414;-75
2021/12/03 04:17:27;;;;;;;7.73;2.93;;;;;;;;;;5035083;28;20464;-75
2021/12/03 04:19:54;;;;;;;6.40;2.57;;;;;;;;;;5034605;28;20437;-75
2021/12/03 04:22:24;;;;;;;10.07;3.50;;;;;;;;;;5034984;28;20472;-75
2021/12/03 04:24:51;;;;;;;7.50;2.93;;;;;;;;;;5033817;28;20426;-76
2021/12/03 04:27:18;;;;;;;8.40;3.07;;;;;;;;;;5035204;28;20800;-76
2021/12/03 04:29:45;;;;;;;12.43;3.97;;;;;;;;;;5035143;28;20430;-76
2021/12/03 04:32:12;;;;;;;6.30;2.53;;;;;;;;;;5034805;28;20456;-76
2021/12/03 04:34:39;;;;;;;8.37;3.43;;;;;;;;;;5033991;28;20905;-76
2021/12/03 04:37:05;;;;;;;6.53;2.70;;;;;;;;;;5017340;28;20492;-76
2021/12/03 04:39:32;;;;;;;3.77;1.50;;;;;;;;;;5035047;28;20526;-75
2021/12/03 04:41:59;;;;;;;4.33;2.10;;;;;;;;;;5033548;28;20454;-75
2021/12/03 04:44:25;;;;;;;4.53;2.37;;;;;;;;;;5034648;28;20513;-75
2021/12/03 04:46:52;;;;;;;3.37;1.83;;;;;;;;;;5017356;28;20418;-75
2021/12/03 04:49:19;;;;;;;2.80;1.60;;;;;;;;;;5034540;28;20436;-75
2021/12/03 04:51:45;;;;;;;6.37;2.00;;;;;;;;;;5035533;28;20434;-75
2021/12/03 04:54:12;;;;;;;4.20;1.30;;;;;;;;;;5017055;28;20755;-75
2021/12/03 04:56:39;;;;;;;6.23;1.90;;;;;;;;;;5034339;28;20418;-76
2021/12/03 04:59:05;;;;;;;4.40;1.50;;;;;;;;;;5034298;28;20525;-75
2021/12/03 05:01:32;;;;;;;2.57;0.90;;;;;;;;;;5033526;28;20524;-76
2021/12/03 05:03:59;;;;;;;3.17;1.50;;;;;;;;;;5033159;28;20437;-76
2021/12/03 05:06:31;;;;;;;3.27;1.73;;;;;;;;;;5033218;28;20430;-75
2021/12/03 05:08:57;;;;;;;4.80;1.80;;;;;;;;;;5033617;28;20448;-75
2021/12/03 05:11:24;;;;;;;5.07;1.63;;;;;;;;;;5034136;28;20430;-76
2021/12/03 05:13:51;;;;;;;2.10;1.33;;;;;;;;;;5034373;28;20426;-76
2021/12/03 05:16:17;;;;;;;2.77;1.80;;;;;;;;;;5034589;28;20492;-76
2021/12/03 05:18:48;;;;;;;1.23;1.03;;;;;;;;;;5016498;28;20842;-75
2021/12/03 05:21:14;;;;;;;3.80;1.80;;;;;;;;;;5034889;28;20442;-76
2021/12/03 05:23:41;;;;;;;4.70;2.17;;;;;;;;;;5034460;28;20499;-76
2021/12/03 05:26:07;;;;;;;6.37;2.70;;;;;;;;;;5034178;28;20501;-75
2021/12/03 05:28:34;;;;;;;4.77;2.43;;;;;;;;;;5032708;28;20836;-75
2021/12/03 05:31:01;;;;;;;6.87;2.60;;;;;;;;;;5032830;28;20434;-75
2021/12/03 05:33:27;;;;;;;6.33;2.00;;;;;;;;;;5033806;28;20420;-76
2021/12/03 05:35:54;;;;;;;3.73;2.17;;;;;;;;;;5033011;28;20442;-75
2021/12/03 05:38:21;;;;;;;6.27;2.73;;;;;;;;;;5034251;28;20434;-75
2021/12/03 05:40:48;;;;;;;3.97;2.47;;;;;;;;;;5032570;28;20469;-75
2021/12/03 05:43:15;;;;;;;6.50;1.70;;;;;;;;;;5033936;28;20417;-75
2021/12/03 05:45:42;;;;;;;2.70;1.70;;;;;;;;;;5032413;28;20465;-75
2021/12/03 05:48:08;;;;;;;4.47;2.20;;;;;;;;;;5033566;28;20426;-75
2021/12/03 05:50:35;;;;;;;3.27;1.77;;;;;;;;;;5032076;28;20435;-74
2021/12/03 05:53:02;;;;;;;2.87;2.07;;;;;;;;;;5047130;28;20487;-76
2021/12/03 05:55:28;;;;;;;3.20;1.20;;;;;;;;;;5052897;28;20421;-75
2021/12/03 05:57:55;;;;;;;4.87;2.27;;;;;;;;;;5052476;28;20932;-71
2021/12/03 06:00:32;;;;;;;3.83;1.93;;;;;;;;;;5035779;28;20425;-66
2021/12/03 06:02:59;;;;;;;6.13;2.90;;;;;;;;;;5053993;28;20477;-66
2021/12/03 06:05:27;;;;;;;5.37;1.70;;;;;;;;;;5053496;28;20471;-66
2021/12/03 06:07:53;;;;;;;5.57;2.80;;;;;;;;;;5053507;28;20464;-65
2021/12/03 06:10:20;;;;;;;6.30;2.80;;;;;;;;;;5053958;28;20721;-66
2021/12/03 06:12:48;;;;;;;4.40;2.33;;;;;;;;;;5053473;28;20941;-66
2021/12/03 06:15:15;;;;;;;5.97;3.03;;;;;;;;;;5053527;28;20429;-66
2021/12/03 06:17:42;;;;;;;5.77;1.83;;;;;;;;;;5053462;28;20422;-66
2021/12/03 06:20:09;;;;;;;3.17;1.70;;;;;;;;;;5053220;28;20424;-66
2021/12/03 06:22:36;;;;;;;3.37;2.03;;;;;;;;;;5035932;28;20465;-66
2021/12/03 06:25:03;;;;;;;4.93;1.97;;;;;;;;;;5042309;28;20430;-66
2021/12/03 06:27:31;;;;;;;3.73;1.77;;;;;;;;;;5033705;28;20897;-66
2021/12/03 06:29:58;;;;;;;3.23;1.60;;;;;;;;;;5033515;28;20432;-66
2021/12/03 06:32:24;;;;;;;4.97;3.17;;;;;;;;;;5033306;28;20920;-65
2021/12/03 06:34:52;;;;;;;6.37;2.90;;;;;;;;;;5033587;28;20437;-66
2021/12/03 06:37:18;;;;;;;2.83;1.17;;;;;;;;;;5033416;28;20425;-66
2021/12/03 06:39:45;;;;;;;3.30;1.47;;;;;;;;;;5033108;28;20430;-66
2021/12/03 06:42:11;;;;;;;5.30;3.17;;;;;;;;;;5032249;28;20462;-66
2021/12/03 06:44:48;;;;;;;4.93;2.70;;;;;;;;;;5028973;28;20433;-66
2021/12/03 06:47:14;;;;;;;4.57;2.30;;;;;;;;;;5032007;28;20418;-66
2021/12/03 06:49:41;;;;;;;4.60;2.30;;;;;;;;;;5032057;28;20438;-66
2021/12/03 06:52:11;;;;;;;5.50;2.80;;;;;;;;;;5032797;28;20426;-66
2021/12/03 06:54:38;;;;;;;6.80;2.80;;;;;;;;;;5033616;28;20478;-66
2021/12/03 06:57:48;;;;;;;4.67;1.77;;;;;;;;;;5033015;28;20444;-66
2021/12/03 07:00:14;;;;;;;9.40;2.97;;;;;;;;;;5032167;28;20422;-66
2021/12/03 07:06:16;;;;;;;8.20;2.87;;;;;;;;;;5035683;28;20452;-66
2021/12/03 07:08:43;;;;;;;3.87;2.30;;;;;;;;;;5035114;28;20433;-66
2021/12/03 07:11:35;;;;;;;5.87;2.20;;;;;;;;;;5034698;28;20778;-66
2021/12/03 07:14:01;;;;;;;4.53;2.20;;;;;;;;;;5034832;28;20426;-66
2021/12/03 07:16:28;;;;;;;8.13;2.93;;;;;;;;;;5034962;28;20426;-66
2021/12/03 07:18:55;;;;;;;5.10;1.63;;;;;;;;;;5035023;28;20761;-66
2021/12/03 07:21:22;;;;;;;3.67;2.50;;;;;;;;;;5033471;28;20814;-66
2021/12/03 07:23:50;;;;;;;6.00;2.00;;;;;;;;;;5034522;28;20428;-66
2021/12/03 07:26:19;;;;;;;5.50;3.20;;;;;;;;;;5034949;28;20438;-66
2021/12/03 07:28:45;;;;;;;3.47;2.37;;;;;;;;;;5034317;28;20433;-66
2021/12/03 07:31:12;;;;;;;3.07;1.60;;;;;;;;;;5034737;28;20816;-66
2021/12/03 07:33:39;;;;;;;3.90;2.60;;;;;;;;;;5034594;28;20469;-66
2021/12/03 07:36:06;;;;;;;2.37;1.30;;;;;;;;;;5034916;28;20418;-66
2021/12/03 07:38:33;;;;;;;4.70;2.30;;;;;;;;;;5035374;28;20501;-66
2021/12/03 07:44:59;;;;;;;6.23;2.10;;;;;;;;;;5035556;28;20389;-67
2021/12/03 07:47:26;;;;;;;3.60;2.20;;;;;;;;;;5036578;28;20482;-67
2021/12/03 07:49:53;;;;;;;4.83;2.30;;;;;;;;;;5034755;28;20509;-66
2021/12/03 07:52:20;;;;;;;5.57;1.97;;;;;;;;;;5035830;28;20430;-66
2021/12/03 07:54:48;;;;;;;5.13;1.80;;;;;;;;;;5035836;28;20437;-66
2021/12/03 07:57:16;;;;;;;4.33;2.07;;;;;;;;;;5036058;28;20453;-66
2021/12/03 07:59:44;;;;;;;5.70;2.70;;;;;;;;;;5035758;28;20497;-66
2021/12/03 08:06:08;;;;;;;5.03;3.23;;;;;;;;;;5035418;28;20365;-66
2021/12/03 08:08:37;;;;;;;2.00;1.73;;;;;;;;;;5035887;28;20461;-66
2021/12/03 08:11:04;;;;;;;4.90;1.70;;;;;;;;;;5035211;28;20993;-67
2021/12/03 08:13:31;;;;;;;3.17;1.70;;;;;;;;;;5035125;28;20430;-67
2021/12/03 08:15:59;;;;;;;2.27;1.70;;;;;;;;;;5034821;28;20919;-66
2021/12/03 08:18:25;;;;;;;2.13;1.43;;;;;;;;;;5035099;28;20425;-67
2021/12/03 08:20:53;;;;;;;4.07;2.70;;;;;;;;;;5035494;28;20433;-66
2021/12/03 08:23:19;;;;;;;6.33;2.77;;;;;;;;;;5035596;28;20461;-66
2021/12/03 08:25:46;;;;;;;4.73;2.20;;;;;;;;;;5035544;28;20425;-67
2021/12/03 08:28:13;;;;;;;3.20;2.00;;;;;;;;;;5035737;28;20418;-66
2021/12/03 08:30:40;;;;;;;4.63;2.43;;;;;;;;;;5035205;28;20423;-67
2021/12/03 08:33:07;;;;;;;1.87;1.40;;;;;;;;;;5035620;28;20529;-66
2021/12/03 08:35:34;;;;;;;6.10;3.20;;;;;;;;;;5034955;28;20521;-66
2021/12/03 08:38:17;;;;;;;3.13;1.63;;;;;;;;;;5033140;28;20442;-66
2021/12/03 08:45:04;;;;;;;4.90;2.00;;;;;;;;;;5034513;28;20417;-67
2021/12/03 08:47:31;;;;;;;4.33;2.30;;;;;;;;;;5035702;28;20422;-66
2021/12/03 08:50:00;;;;;;;4.77;2.90;;;;;;;;;;5034543;28;20464;-67
2021/12/03 08:55:27;;;;;;;3.40;1.93;;;;;;;;;;5033766;28;20402;-67
2021/12/03 08:57:54;;;;;;;4.53;2.93;;;;;;;;;;5033210;28;20446;-66
2021/12/03 09:00:22;;;;;;;4.23;2.63;;;;;;;;;;5034319;28;20454;-66
2021/12/03 09:06:48;;;;;;;8.47;3.73;;;;;;;;;;5034237;28;20389;-66
2021/12/03 09:13:14;;;;;;;6.70;2.60;;;;;;;;;;5034244;28;20429;-67
2021/12/03 09:27:15;;;;;;;7.70;3.70;;;;;;;;;;5032335;28;20414;-66
2021/12/03 09:29:43;;;;;;;5.30;3.00;;;;;;;;;;5032791;28;20463;-67
2021/12/03 09:36:04;;;;;;;5.23;2.67;;;;;;;;;;5032366;28;20444;-66
2021/12/03 09:38:49;;;;;;;4.83;2.17;;;;;;;;;;5031406;28;20525;-67
2021/12/03 09:41:17;;;;;;;5.57;3.10;;;;;;;;;;5031853;28;20955;-67
2021/12/03 09:46:55;;;;;;;3.90;2.03;;;;;;;;;;5032189;28;20489;-66
2021/12/03 09:55:47;;;;;;;5.93;2.90;;;;;;;;;;5033892;28;20753;-68
2021/12/03 09:58:30;;;;;;;3.10;2.10;;;;;;;;;;5033758;28;20432;-66
2021/12/03 10:01:12;;;;;;;3.50;2.13;;;;;;;;;;5033785;28;20414;-67
2021/12/03 10:04:03;;;;;;;5.57;2.83;;;;;;;;;;5033753;28;20414;-66
2021/12/03 10:30:12;;;;;;;4.30;2.17;;;;;;;;;;5032803;28;20439;-66
2021/12/03 10:51:53;;;;;;;9.63;5.23;;;;;;;;;;5037076;28;20396;-67
2021/12/03 10:57:17;;;;;;;3.43;2.13;;;;;;;;;;5037236;28;20483;-67
2021/12/03 11:13:56;;;;;;;5.17;2.57;;;;;;;;;;5035211;28;20417;-67
2021/12/03 11:36:09;;;;;;;12.27;5.93;;;;;;;;;;5061183;28;20432;-67
2021/12/03 11:56:28;;;;;;;6.90;3.03;;;;;;;;;;5036066;28;20409;-68
2021/12/03 12:05:15;;;;;;;4.80;3.00;;;;;;;;;;5035441;28;20485;-68
2021/12/03 12:48:54;;;;;;;6.53;3.07;;;;;;;;;;5032004;28;20466;-74
2021/12/03 13:08:50;;;;;;;3.47;2.17;;;;;;;;;;5042129;28;20418;-75
2021/12/03 14:45:30;;;;;;;9.47;5.53;;;;;;;;;;5054807;28;20460;-74
2021/12/03 14:54:13;;;;;;;4.83;3.70;;;;;;;;;;5052504;28;20447;-72
2021/12/03 14:56:40;;;;;;;7.47;4.50;;;;;;;;;;5052036;28;20407;-70
2021/12/03 14:59:30;;;;;;;5.87;3.50;;;;;;;;;;5052516;28;20429;-71
2021/12/03 15:02:10;;;;;;;10.70;5.50;;;;;;;;;;5054067;28;20420;-71
2021/12/03 15:07:16;;;;;;;9.83;3.83;;;;;;;;;;5053688;28;20508;-72
2021/12/03 15:09:45;;;;;;;9.83;5.07;;;;;;;;;;5053367;28;20418;-70
2021/12/03 15:20:24;;;;;;;11.03;6.73;;;;;;;;;;5053011;28;20521;-73
2021/12/03 15:25:57;;;;;;;14.07;6.67;;;;;;;;;;5053497;28;20434;-73
2021/12/03 15:56:35;;;;;;;14.47;8.77;;;;;;;;;;5050944;28;20421;-73
2021/12/03 16:06:46;;;;;;;14.53;8.77;;;;;;;;;;5034477;28;20461;-71
2021/12/03 16:09:39;;;;;;;14.17;8.70;;;;;;;;;;5044502;28;20438;-73
2021/12/03 16:12:26;;;;;;;16.90;7.87;;;;;;;;;;5055117;28;20466;-73
2021/12/03 16:22:58;;;;;;;11.83;6.60;;;;;;;;;;5052900;28;20439;-68
2021/12/03 16:53:48;;;;;;;13.63;7.53;;;;;;;;;;5055263;28;20390;-74
2021/12/03 16:56:25;;;;;;;16.87;8.83;;;;;;;;;;5055818;28;20390;-74
2021/12/03 16:58:53;;;;;;;15.70;8.50;;;;;;;;;;5054702;28;20429;-75
2021/12/03 17:03:56;;;;;;;15.83;8.47;;;;;;;;;;5054135;28;20487;-75
2021/12/03 17:24:44;;;;;;;26.43;13.67;;;;;;;;;;5054088;28;20481;-74
